Time;durP1;ratioP1;P1;durP2;ratioP2;P2;SDS_P1;SDS_P2;PMS_P1;PMS_P2;Temp;Humidity;BMP_temperature;BMP_pressure;BME280_temperature;BME280_humidity;BME280_pressure;Samples;Min_cycle;Max_cycle;Signal;HPM_P1;HPM_P2
2023/10/12 00:02:13;;;;;;;10.57;7.30;;;18.40;99.90;;;;;;5085210;27;20039;-35
2023/10/12 00:04:43;;;;;;;10.10;7.95;;;18.40;99.90;;;;;;5134014;27;20039;-34
2023/10/12 00:07:15;;;;;;;9.20;7.50;;;18.40;99.90;;;;;;5102743;27;20055;-34
2023/10/12 00:09:48;;;;;;;8.55;7.65;;;18.30;99.90;;;;;;5051045;27;20032;-34
2023/10/12 00:12:21;;;;;;;;;;;18.30;99.90;;;;;;5102778;27;20017;-34
2023/10/12 00:14:48;;;;;;;10.55;6.97;;;18.30;99.90;;;;;;5051344;27;19909;-35
2023/10/12 00:17:13;;;;;;;12.13;7.65;;;18.20;99.90;;;;;;5102088;27;20204;-35
2023/10/12 00:19:42;;;;;;;9.63;7.53;;;18.20;99.90;;;;;;5043341;27;20134;-37
2023/10/12 00:22:15;;;;;;;10.20;6.80;;;18.20;99.90;;;;;;5087699;27;20373;-35
2023/10/12 00:24:46;;;;;;;9.32;6.70;;;18.20;99.90;;;;;;5149027;27;20039;-35
2023/10/12 00:27:14;;;;;;;7.50;6.32;;;18.20;99.90;;;;;;5066730;27;20392;-36
2023/10/12 00:29:40;;;;;;;9.63;6.80;;;18.20;99.90;;;;;;5044621;28;20036;-36
2023/10/12 00:32:07;;;;;;;10.07;6.80;;;18.20;99.90;;;;;;5108580;27;20015;-37
2023/10/12 00:34:45;;;;;;;8.82;7.13;;;18.20;99.90;;;;;;5042501;28;20136;-36
2023/10/12 00:37:11;;;;;;;9.43;7.43;;;18.20;99.90;;;;;;5108828;27;20023;-35
2023/10/12 00:39:59;;;;;;;7.47;6.30;;;18.20;99.90;;;;;;5023038;28;20074;-36
2023/10/12 00:42:29;;;;;;;9.77;7.45;;;18.20;99.90;;;;;;5105925;27;20056;-35
2023/10/12 00:45:05;;;;;;;9.60;7.68;;;18.20;99.90;;;;;;5043469;28;20041;-36
2023/10/12 00:47:49;;;;;;;9.43;7.32;;;18.20;99.90;;;;;;5107186;27;20401;-37
2023/10/12 00:50:15;;;;;;;8.40;7.60;;;18.20;99.90;;;;;;5148239;27;20094;-35
2023/10/12 00:53:02;;;;;;;9.65;7.45;;;18.20;99.90;;;;;;5084262;27;20062;-35
2023/10/12 00:55:37;;;;;;;8.68;6.50;;;18.20;99.90;;;;;;5022960;28;20544;-35
2023/10/12 00:58:07;;;;;;;9.10;7.72;;;18.20;99.90;;;;;;5106044;27;20083;-35
2023/10/12 01:00:51;;;;;;;10.15;7.13;;;18.10;99.90;;;;;;5042756;28;20499;-35
2023/10/12 01:03:35;;;;;;;8.95;7.15;;;18.10;99.90;;;;;;5108041;27;20461;-36
2023/10/12 01:06:20;;;;;;;13.23;9.00;;;18.10;99.90;;;;;;5042842;28;20082;-35
2023/10/12 01:08:47;;;;;;;11.32;8.55;;;18.10;99.90;;;;;;5085010;27;20021;-35
2023/10/12 01:11:19;;;;;;;11.57;8.88;;;18.10;99.90;;;;;;5147783;27;20034;-35
2023/10/12 01:16:43;;;;;;;11.02;8.68;;;18.00;99.90;;;;;;5022457;28;20396;-35
2023/10/12 01:19:09;;;;;;;10.30;7.53;;;18.00;99.90;;;;;;5085866;27;20019;-35
2023/10/12 01:21:36;;;;;;;14.60;9.48;;;18.00;99.90;;;;;;5148283;27;20370;-35
2023/10/12 01:24:11;;;;;;;13.02;9.05;;;18.00;99.90;;;;;;5080850;27;20089;-35
2023/10/12 01:26:48;;;;;;;10.75;8.25;;;18.00;99.90;;;;;;5148079;27;20033;-35
2023/10/12 01:29:20;;;;;;;13.70;8.90;;;18.00;99.90;;;;;;5080015;27;20097;-35
2023/10/12 01:32:08;;;;;;;13.25;9.70;;;18.00;99.90;;;;;;5148017;27;20027;-35
2023/10/12 01:34:37;;;;;;;15.00;10.05;;;18.00;99.90;;;;;;5081972;27;20316;-35
2023/10/12 01:37:22;;;;;;;11.15;8.57;;;18.00;99.90;;;;;;5146572;27;20049;-35
2023/10/12 01:45:35;;;;;;;12.63;9.45;;;17.90;99.90;;;;;;5087946;27;20474;-33
2023/10/12 01:50:38;;;;;;;13.85;10.30;;;17.90;99.90;;;;;;5099973;27;20171;-34
2023/10/12 01:53:26;;;;;;;14.40;10.13;;;17.90;99.90;;;;;;5139059;27;20105;-35
2023/10/12 01:55:53;;;;;;;9.88;8.88;;;17.80;99.90;;;;;;5088445;27;20033;-35
2023/10/12 01:58:20;;;;;;;9.82;8.60;;;17.80;99.90;;;;;;5138240;27;20022;-35
2023/10/12 02:00:52;;;;;;;12.32;9.10;;;17.80;99.90;;;;;;5088246;27;20027;-35
2023/10/12 02:05:59;;;;;;;10.98;8.57;;;17.80;99.90;;;;;;5097230;27;20473;-35
2023/10/12 02:11:16;;;;;;;13.50;10.00;;;17.80;99.90;;;;;;5096744;27;20364;-37
2023/10/12 02:13:47;;;;;;;10.48;8.93;;;17.80;99.90;;;;;;5049279;27;20346;-36
2023/10/12 02:16:22;;;;;;;10.52;8.40;;;17.90;99.90;;;;;;5100075;27;20183;-35
2023/10/12 02:18:54;;;;;;;9.60;8.05;;;17.80;99.90;;;;;;5045661;27;20070;-36
2023/10/12 02:21:26;;;;;;;9.07;7.43;;;17.80;99.90;;;;;;5096621;27;20532;-40
2023/10/12 02:24:10;;;;;;;9.60;7.53;;;17.80;99.90;;;;;;5043147;27;20514;-35
2023/10/12 02:26:39;;;;;;;10.85;7.20;;;17.80;99.90;;;;;;5087939;27;20053;-35
2023/10/12 02:31:38;;;;;;;13.88;8.63;;;17.80;99.90;;;;;;5084800;27;20027;-36
2023/10/12 02:34:13;;;;;;;13.93;8.55;;;17.70;99.90;;;;;;5145957;27;20034;-36
2023/10/12 02:36:39;;;;;;;8.73;6.57;;;17.70;99.90;;;;;;5081250;27;20046;-36
2023/10/12 02:39:10;;;;;;;9.85;7.07;;;17.70;99.90;;;;;;5145312;27;20484;-35
2023/10/12 02:41:45;;;;;;;11.13;6.70;;;17.60;99.90;;;;;;5080210;27;20078;-36
2023/10/12 02:44:19;;;;;;;7.18;5.95;;;17.70;99.90;;;;;;5145792;27;20046;-36
2023/10/12 02:47:12;;;;;;;12.00;6.35;;;17.60;99.90;;;;;;5075669;27;20018;-37
2023/10/12 02:49:40;;;;;;;8.52;6.80;;;17.60;99.90;;;;;;5112554;27;20061;-36
2023/10/12 02:52:08;;;;;;;8.73;6.85;;;17.70;99.90;;;;;;5079255;27;20006;-34
2023/10/12 02:54:50;;;;;;;11.23;6.35;;;17.70;99.90;;;;;;5144894;27;20026;-34
2023/10/12 02:57:25;;;;;;;11.52;7.38;;;17.60;99.90;;;;;;5079902;27;20018;-34
2023/10/12 03:00:19;;;;;;;12.85;7.55;;;17.70;99.90;;;;;;5146490;27;20422;-34
2023/10/12 03:02:46;;;;;;;9.75;6.82;;;17.60;99.90;;;;;;5087147;27;20019;-35
2023/10/12 03:05:17;;;;;;;9.63;6.88;;;17.60;99.90;;;;;;5144919;27;20058;-35
2023/10/12 03:07:44;;;;;;;7.85;6.60;;;17.60;99.90;;;;;;5104157;27;20025;-35
2023/10/12 03:10:25;;;;;;;8.63;6.90;;;17.60;99.90;;;;;;5041392;28;20043;-35
2023/10/12 03:12:55;;;;;;;8.40;6.10;;;17.60;99.90;;;;;;5106820;27;20444;-35
2023/10/12 03:15:40;;;;;;;7.63;6.15;;;17.60;99.90;;;;;;5040499;28;20036;-35
2023/10/12 03:18:10;;;;;;;7.70;5.18;;;17.60;99.90;;;;;;5082575;27;20067;-41
2023/10/12 03:20:37;;;;;;;7.07;5.60;;;17.60;99.90;;;;;;5145788;27;20550;-35
2023/10/12 03:23:13;;;;;;;6.60;4.63;;;17.60;99.90;;;;;;5077135;27;20090;-35
2023/10/12 03:25:46;;;;;;;10.20;5.78;;;17.60;99.90;;;;;;5145800;27;20035;-36
2023/10/12 03:28:29;;;;;;;6.60;5.40;;;17.60;99.90;;;;;;5079504;27;20025;-36
2023/10/12 03:36:45;;;;;;;5.03;4.22;;;17.50;99.90;;;;;;5113347;27;20133;-36
2023/10/12 03:44:21;;;;;;;7.82;4.78;;;17.50;99.90;;;;;;5096478;27;20055;-35
2023/10/12 03:46:56;;;;;;;5.28;4.00;;;17.50;99.90;;;;;;5047504;27;20468;-35
2023/10/12 03:49:32;;;;;;;9.65;4.75;;;17.50;99.90;;;;;;5074243;27;20060;-35
2023/10/12 03:52:13;;;;;;;7.30;4.10;;;17.50;99.90;;;;;;5047604;27;20572;-35
2023/10/12 03:54:45;;;;;;;5.77;4.03;;;17.60;99.90;;;;;;5097887;27;20029;-42
2023/10/12 03:57:19;;;;;;;7.80;4.22;;;17.50;99.90;;;;;;5047324;27;20437;-34
2023/10/12 04:02:30;;;;;;;5.43;4.13;;;17.50;99.90;;;;;;5048292;27;20251;-36
2023/10/12 04:13:55;;;;;;;6.18;4.18;;;17.50;99.90;;;;;;5066597;27;20029;-36
2023/10/12 04:16:27;;;;;;;6.75;4.78;;;17.50;99.90;;;;;;5102941;27;20113;-36
2023/10/12 04:21:33;;;;;;;5.80;3.95;;;17.50;99.90;;;;;;5112269;27;20019;-35
2023/10/12 04:29:13;;;;;;;5.53;3.88;;;17.60;99.90;;;;;;5119896;27;20376;-36
2023/10/12 04:34:10;;;;;;;7.38;4.22;;;17.60;99.90;;;;;;5121967;27;20037;-35
2023/10/12 04:39:16;;;;;;;;;;;17.60;99.90;;;;;;5133668;27;20033;-35
2023/10/12 04:46:59;;;;;;;6.03;4.38;;;17.60;99.90;;;;;;5099471;27;20338;-34
2023/10/12 04:52:13;;;;;;;6.78;4.18;;;17.60;99.90;;;;;;5092829;27;20772;-35
2023/10/12 04:57:38;;;;;;;6.22;4.75;;;17.60;99.90;;;;;;5043786;27;20072;-34
2023/10/12 05:07:54;;;;;;;6.70;4.72;;;17.50;99.90;;;;;;5077629;27;20081;-34
2023/10/12 05:13:06;;;;;;;8.52;4.78;;;17.50;99.90;;;;;;5075068;27;20037;-36
2023/10/12 05:15:42;;;;;;;10.30;4.82;;;17.50;99.90;;;;;;5064582;27;20103;-35
2023/10/12 05:18:12;;;;;;;10.20;5.45;;;17.50;99.90;;;;;;5078336;27;20025;-36
2023/10/12 05:20:41;;;;;;;6.60;4.97;;;17.40;99.90;;;;;;5062077;27;20059;-36
2023/10/12 05:23:07;;;;;;;8.63;4.82;;;17.40;99.90;;;;;;5086364;27;20028;-36
2023/10/12 05:25:33;;;;;;;6.65;4.95;;;17.40;99.90;;;;;;5050675;27;20029;-36
2023/10/12 05:28:14;;;;;;;5.90;4.82;;;17.50;99.90;;;;;;5099475;27;20136;-36
2023/10/12 05:30:54;;;;;;;5.47;4.53;;;17.50;99.90;;;;;;5050149;27;20092;-35
2023/10/12 05:35:57;;;;;;;6.72;5.20;;;17.50;99.90;;;;;;5137655;27;20520;-35
2023/10/12 05:38:34;;;;;;;7.07;5.28;;;17.50;99.90;;;;;;5093052;27;20027;-36
2023/10/12 05:41:04;;;;;;;6.90;4.90;;;17.50;99.90;;;;;;5139437;27;20033;-35
2023/10/12 05:43:33;;;;;;;7.53;5.38;;;17.50;99.90;;;;;;5079018;27;20019;-36
2023/10/12 05:46:13;;;;;;;7.00;5.57;;;17.50;99.90;;;;;;5139619;27;20626;-34
2023/10/12 05:48:41;;;;;;;10.30;6.65;;;17.40;99.90;;;;;;5059518;27;20017;-34
2023/10/12 05:51:11;;;;;;;9.25;6.47;;;17.40;99.90;;;;;;5048441;27;20047;-35
2023/10/12 05:53:37;;;;;;;9.60;7.25;;;17.40;99.90;;;;;;5100968;27;20028;-35
2023/10/12 05:56:05;;;;;;;9.27;8.02;;;17.40;99.90;;;;;;5045006;27;20036;-34
2023/10/12 05:58:33;;;;;;;9.82;8.52;;;17.40;99.90;;;;;;5101857;27;20026;-36
2023/10/12 06:01:07;;;;;;;11.07;9.77;;;17.40;99.90;;;;;;5042867;28;20021;-36
2023/10/12 06:03:46;;;;;;;10.20;8.80;;;17.40;99.90;;;;;;5106962;27;20055;-35
2023/10/12 06:06:12;;;;;;;9.30;8.30;;;17.40;99.90;;;;;;5038934;28;20037;-36
2023/10/12 06:08:39;;;;;;;8.63;6.80;;;17.40;99.90;;;;;;5106832;27;20926;-35
2023/10/12 06:11:09;;;;;;;7.10;6.13;;;17.40;99.90;;;;;;5040065;28;20086;-35
2023/10/12 06:13:41;;;;;;;6.22;5.60;;;17.40;99.90;;;;;;5107022;27;20039;-36
2023/10/12 06:16:14;;;;;;;7.25;5.40;;;17.40;99.90;;;;;;5040834;28;20040;-36
2023/10/12 06:18:47;;;;;;;5.43;4.75;;;17.30;99.90;;;;;;5106392;27;20141;-35
2023/10/12 06:21:18;;;;;;;5.70;3.50;;;17.20;99.90;;;;;;5040617;28;20033;-35
2023/10/12 06:23:51;;;;;;;4.87;3.10;;;17.20;99.90;;;;;;5104966;27;20042;-34
2023/10/12 06:26:28;;;;;;;2.60;2.28;;;17.10;99.90;;;;;;5021196;28;20036;-36
2023/10/12 06:28:55;;;;;;;1.75;1.60;;;17.10;99.90;;;;;;5101797;27;20075;-45
2023/10/12 06:31:21;;;;;;;2.35;1.42;;;17.00;99.90;;;;;;5145734;27;20031;-37
2023/10/12 06:33:50;;;;;;;1.73;1.17;;;16.90;99.90;;;;;;5095033;27;20039;-35
2023/10/12 06:36:22;;;;;;;1.00;0.90;;;16.80;99.90;;;;;;5133354;27;20045;-35
2023/10/12 06:44:27;;;;;;;1.65;1.10;;;16.30;99.90;;;;;;5109159;27;20042;-35
2023/10/12 06:46:54;;;;;;;1.40;1.05;;;16.10;99.90;;;;;;5041471;27;20025;-35
2023/10/12 06:49:28;;;;;;;2.92;1.38;;;16.00;99.90;;;;;;5048631;27;20070;-35
2023/10/12 06:52:04;;;;;;;4.50;1.73;;;16.00;99.90;;;;;;5041746;28;20017;-36
2023/10/12 06:54:32;;;;;;;1.88;1.33;;;15.80;99.90;;;;;;5081731;27;20110;-34
2023/10/12 07:02:29;;;;;;;2.15;1.15;;;15.60;99.90;;;;;;5145969;27;20625;-35
2023/10/12 07:04:55;;;;;;;2.83;1.40;;;15.60;99.90;;;;;;5090898;27;20089;-38
2023/10/12 07:07:41;;;;;;;3.25;1.67;;;15.60;99.90;;;;;;5134208;27;20030;-35
2023/10/12 07:12:44;;;;;;;3.05;1.40;;;15.50;99.90;;;;;;5139534;27;20030;-34
2023/10/12 07:15:11;;;;;;;2.30;1.10;;;15.50;99.90;;;;;;5093307;27;20109;-34
2023/10/12 07:17:37;;;;;;;2.60;1.05;;;15.50;99.90;;;;;;5132444;27;20027;-34
2023/10/12 07:20:06;;;;;;;1.95;1.00;;;15.50;99.90;;;;;;5106650;27;20028;-35
2023/10/12 07:22:36;;;;;;;2.90;1.23;;;15.50;99.90;;;;;;5120960;27;20023;-35
2023/10/12 07:25:04;;;;;;;1.48;0.80;;;15.60;99.90;;;;;;5114657;27;20068;-34
2023/10/12 07:27:41;;;;;;;1.90;1.15;;;15.50;99.90;;;;;;5112167;27;20019;-38
2023/10/12 07:32:59;;;;;;;1.45;0.90;;;15.50;99.90;;;;;;5120627;27;20115;-35
2023/10/12 07:35:31;;;;;;;1.60;0.75;;;15.60;99.90;;;;;;5112713;27;20488;-35
2023/10/12 07:38:00;;;;;;;;;;;15.60;99.90;;;;;;5117999;27;20106;-35
2023/10/12 07:40:34;;;;;;;1.15;0.80;;;15.60;99.90;;;;;;5120274;27;19953;-35
2023/10/12 07:43:07;;;;;;;1.38;0.75;;;15.60;99.90;;;;;;5110652;27;20038;-34
2023/10/12 07:45:38;;;;;;;0.95;0.77;;;15.70;99.90;;;;;;5122697;27;20062;-34
2023/10/12 07:48:09;;;;;;;1.15;0.80;;;15.70;99.90;;;;;;5105577;27;20481;-34
2023/10/12 07:50:47;;;;;;;1.73;1.00;;;15.70;99.90;;;;;;5066116;27;20029;-35
2023/10/12 07:53:22;;;;;;;1.33;0.70;;;15.70;99.90;;;;;;5080032;27;20028;-34
2023/10/12 07:56:06;;;;;;;2.92;1.20;;;15.70;99.90;;;;;;5058876;27;20025;-35
2023/10/12 07:58:35;;;;;;;2.85;1.05;;;15.80;99.90;;;;;;5074159;27;20033;-34
2023/10/12 08:03:50;;;;;;;2.03;1.02;;;15.80;99.90;;;;;;5072355;27;20835;-35
2023/10/12 08:06:17;;;;;;;1.38;1.02;;;15.80;99.90;;;;;;5063590;27;20058;-35
2023/10/12 08:08:45;;;;;;;1.55;1.08;;;15.80;99.90;;;;;;5081126;27;20495;-35
2023/10/12 08:11:27;;;;;;;1.58;0.90;;;15.80;99.90;;;;;;5054501;27;20418;-35
2023/10/12 08:13:55;;;;;;;1.70;0.82;;;15.80;99.90;;;;;;5085499;27;20073;-35
2023/10/12 08:16:27;;;;;;;1.63;0.80;;;15.80;99.90;;;;;;5055135;27;20028;-35
2023/10/12 08:21:32;;;;;;;2.60;0.90;;;15.80;99.90;;;;;;5050797;27;20498;-35
2023/10/12 08:29:17;;;;;;;1.00;0.70;;;15.80;99.90;;;;;;5078842;27;20480;-35
2023/10/12 08:31:46;;;;;;;1.92;1.70;;;15.80;99.90;;;;;;5141038;27;20023;-39
2023/10/12 08:39:38;;;;;;;1.20;1.10;;;15.90;99.90;;;;;;5094592;27;20070;-35
2023/10/12 08:44:59;;;;;;;0.98;0.70;;;15.90;99.90;;;;;;5094104;27;20409;-34
2023/10/12 08:47:40;;;;;;;1.77;0.90;;;15.90;99.90;;;;;;5135060;27;20138;-34
2023/10/12 08:52:50;;;;;;;0.77;0.30;;;15.90;99.90;;;;;;5128600;27;20046;-35
2023/10/12 08:55:24;;;;;;;0.57;0.50;;;15.90;99.90;;;;;;5103879;27;20065;-34
2023/10/12 08:58:20;;;;;;;0.70;0.47;;;15.80;99.90;;;;;;5131753;27;20047;-35
2023/10/12 09:03:44;;;;;;;0.73;0.70;;;15.80;99.90;;;;;;5101648;27;20060;-35
2023/10/12 09:06:29;;;;;;;0.70;0.70;;;15.90;99.90;;;;;;5128406;27;20089;-33
2023/10/12 09:08:56;;;;;;;1.08;0.70;;;15.90;99.90;;;;;;5099792;27;20025;-34
2023/10/12 09:11:34;;;;;;;1.20;0.70;;;15.90;99.90;;;;;;5131293;27;20030;-35
2023/10/12 09:14:11;;;;;;;1.00;0.68;;;15.90;99.90;;;;;;5102372;27;20099;-35
2023/10/12 09:16:37;;;;;;;1.55;0.60;;;15.80;99.90;;;;;;5135044;27;20050;-35
2023/10/12 09:19:07;;;;;;;1.08;0.50;;;15.90;99.90;;;;;;5107878;27;20017;-35
2023/10/12 09:21:57;;;;;;;0.50;0.50;;;15.80;99.90;;;;;;5123690;27;20526;-35
2023/10/12 09:24:28;;;;;;;0.98;0.50;;;15.90;99.90;;;;;;5101300;27;20044;-35
2023/10/12 09:27:02;;;;;;;0.75;0.40;;;15.90;99.90;;;;;;5132335;27;20125;-35
2023/10/12 09:29:42;;;;;;;1.00;0.60;;;15.90;99.90;;;;;;5106333;27;20104;-35
2023/10/12 09:32:14;;;;;;;0.60;0.50;;;15.90;99.90;;;;;;5134224;27;20135;-35
2023/10/12 09:37:28;;;;;;;0.65;0.38;;;16.00;99.90;;;;;;5140834;27;19921;-35
2023/10/12 09:39:54;;;;;;;1.98;0.40;;;16.00;99.90;;;;;;5101650;27;20102;-43
2023/10/12 09:42:30;;;;;;;0.63;0.40;;;16.00;99.90;;;;;;5127718;27;20022;-35
2023/10/12 09:45:05;;;;;;;0.95;0.60;;;16.00;99.90;;;;;;5108250;27;20033;-37
2023/10/12 09:47:44;;;;;;;0.40;0.40;;;16.10;99.90;;;;;;5129664;27;20041;-35
2023/10/12 09:50:13;;;;;;;0.60;0.50;;;16.10;99.90;;;;;;5119356;27;20543;-35
2023/10/12 09:52:58;;;;;;;1.08;0.50;;;16.10;99.90;;;;;;5062918;27;20150;-35
2023/10/12 09:55:36;;;;;;;0.57;0.50;;;16.10;99.90;;;;;;5087420;27;20019;-35
2023/10/12 09:58:15;;;;;;;0.77;0.63;;;16.20;99.90;;;;;;5053519;27;20101;-35
2023/10/12 10:00:55;;;;;;;1.10;1.00;;;16.20;99.90;;;;;;5091877;27;20111;-34
2023/10/12 10:03:23;;;;;;;1.48;0.98;;;16.20;99.90;;;;;;5045572;27;20064;-36
2023/10/12 10:05:54;;;;;;;1.25;0.95;;;16.20;99.90;;;;;;5090286;27;20083;-35
2023/10/12 10:08:29;;;;;;;1.27;0.93;;;16.20;99.90;;;;;;5054479;27;20032;-35
2023/10/12 10:10:57;;;;;;;1.20;0.95;;;16.20;99.90;;;;;;5086200;27;20030;-36
2023/10/12 10:13:47;;;;;;;1.20;1.10;;;16.20;99.90;;;;;;5060637;27;20040;-34
2023/10/12 10:16:17;;;;;;;1.08;0.98;;;16.20;99.90;;;;;;5091584;27;20019;-34
2023/10/12 10:18:45;;;;;;;1.17;1.08;;;16.20;99.90;;;;;;5052226;27;20028;-36
2023/10/12 10:21:13;;;;;;;1.58;1.23;;;16.20;99.90;;;;;;5081761;27;20114;-35
2023/10/12 10:23:48;;;;;;;1.25;1.02;;;16.20;99.90;;;;;;5061745;27;20085;-34
2023/10/12 10:26:19;;;;;;;1.10;1.00;;;16.20;99.90;;;;;;5075508;27;20062;-35
2023/10/12 10:28:55;;;;;;;1.15;1.00;;;16.20;99.90;;;;;;5066042;27;20064;-36
2023/10/12 10:31:36;;;;;;;1.13;0.93;;;16.20;99.90;;;;;;5074220;27;20022;-34
2023/10/12 10:34:07;;;;;;;0.90;0.90;;;16.30;99.90;;;;;;5061771;27;20029;-35
2023/10/12 10:36:36;;;;;;;1.05;0.90;;;16.30;99.90;;;;;;5076865;27;20499;-35
2023/10/12 10:44:13;;;;;;;0.80;0.80;;;16.40;99.90;;;;;;5073895;27;20549;-36
2023/10/12 10:46:43;;;;;;;1.20;1.10;;;16.40;99.90;;;;;;5065698;27;20029;-34
2023/10/12 10:49:15;;;;;;;1.38;1.00;;;16.40;99.90;;;;;;5099759;27;20023;-35
2023/10/12 10:51:48;;;;;;;1.00;1.00;;;16.50;99.90;;;;;;5126510;27;20065;-35
2023/10/12 10:54:20;;;;;;;1.38;1.10;;;16.50;99.90;;;;;;5104203;27;20500;-36
2023/10/12 10:56:47;;;;;;;1.65;1.08;;;16.50;99.90;;;;;;5131087;27;20035;-36
2023/10/12 10:59:17;;;;;;;1.33;0.98;;;16.60;99.90;;;;;;5095017;27;20023;-35
2023/10/12 11:01:48;;;;;;;1.60;1.50;;;16.60;99.90;;;;;;5138604;27;20764;-35
2023/10/12 11:04:18;;;;;;;2.45;1.30;;;16.60;99.90;;;;;;5078381;27;20093;-36
2023/10/12 11:06:47;;;;;;;1.45;1.20;;;16.60;99.90;;;;;;5138002;27;20025;-36
2023/10/12 11:09:15;;;;;;;2.25;1.13;;;16.70;99.90;;;;;;5087378;27;20057;-36
2023/10/12 11:11:53;;;;;;;1.40;1.30;;;16.70;99.90;;;;;;5138217;27;20572;-35
2023/10/12 11:14:24;;;;;;;2.25;1.35;;;16.60;99.90;;;;;;5085805;27;20038;-34
2023/10/12 11:16:51;;;;;;;1.30;1.20;;;16.70;99.90;;;;;;5139015;27;20037;-35
2023/10/12 11:19:23;;;;;;;2.10;1.90;;;16.70;99.90;;;;;;5086436;27;20573;-34
2023/10/12 11:21:52;;;;;;;1.80;1.70;;;16.70;99.90;;;;;;5144858;27;20062;-34
2023/10/12 11:24:18;;;;;;;2.22;2.03;;;16.80;99.90;;;;;;5080023;27;20640;-35
2023/10/12 11:26:52;;;;;;;2.28;2.08;;;16.80;99.90;;;;;;5144745;27;20098;-35
2023/10/12 11:29:17;;;;;;;2.45;2.25;;;16.90;99.90;;;;;;5078972;27;20057;-35
2023/10/12 11:31:46;;;;;;;2.65;2.17;;;16.90;99.90;;;;;;5146324;27;20019;-35
2023/10/12 11:34:23;;;;;;;2.85;2.38;;;16.90;99.90;;;;;;5078694;27;20025;-35
2023/10/12 11:36:57;;;;;;;1.92;1.75;;;16.90;99.90;;;;;;5146294;27;20144;-35
2023/10/12 11:39:28;;;;;;;2.30;2.10;;;17.00;99.90;;;;;;5121312;27;20039;-36
2023/10/12 11:42:07;;;;;;;2.53;2.22;;;17.00;99.90;;;;;;5040610;28;20029;-35
2023/10/12 11:44:42;;;;;;;3.35;2.90;;;17.00;99.90;;;;;;5109030;27;20035;-35
2023/10/12 11:47:37;;;;;;;2.80;2.22;;;17.00;99.90;;;;;;5044554;28;20017;-35
2023/10/12 11:50:09;;;;;;;2.97;2.60;;;17.00;99.90;;;;;;5061801;27;20045;-35
2023/10/12 11:52:37;;;;;;;2.83;2.63;;;17.00;99.90;;;;;;5044757;28;20021;-35
2023/10/12 11:55:20;;;;;;;3.17;2.90;;;17.00;99.90;;;;;;5075852;27;20031;-34
2023/10/12 11:57:54;;;;;;;3.33;2.70;;;17.00;99.90;;;;;;5149904;27;20054;-35
2023/10/12 12:00:26;;;;;;;3.63;3.33;;;17.00;99.90;;;;;;5082330;27;20029;-36
2023/10/12 12:02:57;;;;;;;;;;;17.00;99.90;;;;;;5149185;27;20041;-36
2023/10/12 12:05:33;;;;;;;3.30;3.00;;;17.00;99.90;;;;;;5082453;27;20040;-36
2023/10/12 12:08:18;;;;;;;3.67;3.20;;;17.00;99.90;;;;;;5149208;27;20030;-36
2023/10/12 12:13:20;;;;;;;3.50;3.20;;;17.00;99.90;;;;;;5149042;27;20086;-35
2023/10/12 12:15:46;;;;;;;3.85;3.28;;;17.00;99.90;;;;;;5082698;27;20815;-34
2023/10/12 12:18:19;;;;;;;4.55;3.50;;;17.00;99.90;;;;;;5147859;27;20027;-36
2023/10/12 12:20:50;;;;;;;3.25;2.95;;;17.00;99.90;;;;;;5082602;27;20025;-35
2023/10/12 12:23:16;;;;;;;4.53;4.00;;;17.00;99.90;;;;;;5148114;27;20022;-35
2023/10/12 12:25:45;;;;;;;4.85;4.20;;;17.10;99.90;;;;;;5090453;27;20048;-36
2023/10/12 12:28:21;;;;;;;4.53;4.13;;;17.00;99.90;;;;;;5143688;27;20023;-36
2023/10/12 12:30:51;;;;;;;5.10;4.32;;;17.10;99.90;;;;;;5093690;27;20154;-35
2023/10/12 12:33:20;;;;;;;5.40;4.55;;;17.20;99.90;;;;;;5140050;27;20138;-34
2023/10/12 12:36:10;;;;;;;6.35;4.47;;;17.20;99.90;;;;;;5102524;27;20084;-38
2023/10/12 12:41:23;;;;;;;5.10;4.60;;;17.30;99.90;;;;;;5095385;27;20033;-35
2023/10/12 12:43:49;;;;;;;5.40;4.57;;;17.30;99.90;;;;;;5148149;27;20030;-35
2023/10/12 12:46:16;;;;;;;4.85;4.38;;;17.30;99.90;;;;;;5095411;27;20101;-36
2023/10/12 12:48:45;;;;;;;5.07;4.60;;;17.30;99.90;;;;;;5136533;27;20430;-35
2023/10/12 12:51:13;;;;;;;5.78;5.18;;;17.30;99.90;;;;;;5085672;27;20027;-35
2023/10/12 12:53:39;;;;;;;5.30;4.80;;;17.40;99.90;;;;;;5065945;27;20037;-35
2023/10/12 12:56:05;;;;;;;7.18;6.07;;;17.30;99.90;;;;;;5071556;27;20025;-34
2023/10/12 12:58:32;;;;;;;9.10;7.45;;;17.40;99.90;;;;;;5078282;27;20029;-34
2023/10/12 13:01:00;;;;;;;7.78;6.97;;;17.40;99.90;;;;;;5060922;27;20021;-35
2023/10/12 13:03:29;;;;;;;7.35;6.50;;;17.40;99.90;;;;;;5089594;27;20260;-38
2023/10/12 13:05:55;;;;;;;6.80;5.90;;;17.40;99.90;;;;;;5049988;27;20033;-35
2023/10/12 13:08:22;;;;;;;7.05;6.28;;;17.40;99.90;;;;;;5100623;27;20028;-35
2023/10/12 13:10:48;;;;;;;6.10;5.50;;;17.40;99.90;;;;;;5050433;27;20017;-36
2023/10/12 13:13:13;;;;;;;7.60;5.72;;;17.40;99.90;;;;;;5100988;27;20027;-34
2023/10/12 13:15:48;;;;;;;6.53;5.32;;;17.40;99.90;;;;;;5043754;27;20713;-35
2023/10/12 13:18:16;;;;;;;6.20;5.60;;;17.40;99.90;;;;;;5097543;27;20040;-35
2023/10/12 13:20:46;;;;;;;6.07;5.47;;;17.40;99.90;;;;;;5042247;28;20116;-34
2023/10/12 13:23:21;;;;;;;6.78;5.90;;;17.40;99.90;;;;;;5106655;27;20036;-35
2023/10/12 13:25:47;;;;;;;6.60;5.95;;;17.40;99.90;;;;;;5043073;28;20177;-34
2023/10/12 13:28:13;;;;;;;7.00;6.10;;;17.40;99.90;;;;;;5106964;27;20031;-36
2023/10/12 13:30:42;;;;;;;7.28;6.30;;;17.40;99.90;;;;;;5043332;28;20029;-36
2023/10/12 13:33:11;;;;;;;6.35;5.65;;;17.40;99.90;;;;;;5108780;27;20170;-36
2023/10/12 13:38:09;;;;;;;8.45;7.32;;;17.40;99.90;;;;;;5099480;27;20030;-36
2023/10/12 13:40:40;;;;;;;6.30;5.70;;;17.40;99.90;;;;;;5047869;27;20087;-36
2023/10/12 13:43:15;;;;;;;8.48;6.55;;;17.30;99.90;;;;;;5092348;27;20018;-36
2023/10/12 13:45:52;;;;;;;6.55;5.88;;;17.30;99.90;;;;;;5051861;27;20114;-35
2023/10/12 13:48:22;;;;;;;6.45;5.55;;;17.30;99.90;;;;;;5092546;27;20019;-35
2023/10/12 13:51:01;;;;;;;7.35;6.53;;;17.30;99.90;;;;;;5136614;27;20022;-34
2023/10/12 13:53:28;;;;;;;9.02;6.97;;;17.20;99.90;;;;;;5096480;27;20355;-35
2023/10/12 13:55:54;;;;;;;11.73;6.88;;;17.10;99.90;;;;;;5131650;27;20033;-35
2023/10/12 13:58:24;;;;;;;9.70;6.50;;;17.10;99.90;;;;;;5109086;27;20032;-34
2023/10/12 14:00:51;;;;;;;11.43;6.80;;;17.10;99.90;;;;;;5122874;27;20023;-40
2023/10/12 14:03:17;;;;;;;8.38;6.88;;;17.10;99.90;;;;;;5118313;27;20032;-35
2023/10/12 14:05:44;;;;;;;10.18;7.10;;;17.00;99.90;;;;;;5109476;27;20050;-36
2023/10/12 14:08:10;;;;;;;7.80;6.00;;;17.00;99.90;;;;;;5131333;27;20011;-34
2023/10/12 14:10:44;;;;;;;7.47;6.20;;;16.90;99.90;;;;;;5097047;27;20023;-35
2023/10/12 14:13:11;;;;;;;7.15;5.93;;;17.00;99.90;;;;;;5138523;27;20063;-36
2023/10/12 14:15:37;;;;;;;7.00;6.15;;;17.00;99.90;;;;;;5089553;27;20033;-35
2023/10/12 14:18:05;;;;;;;11.93;6.63;;;17.00;99.90;;;;;;5138711;27;20023;-36
2023/10/12 14:20:32;;;;;;;7.20;5.85;;;17.00;99.90;;;;;;5088295;27;20413;-35
2023/10/12 14:23:05;;;;;;;6.47;5.28;;;16.90;99.90;;;;;;5141661;27;20509;-35
2023/10/12 14:25:35;;;;;;;6.47;5.78;;;16.90;99.90;;;;;;5097348;27;20037;-35
2023/10/12 14:28:01;;;;;;;5.88;5.28;;;16.90;99.90;;;;;;5042784;27;20093;-35
2023/10/12 14:30:30;;;;;;;6.60;5.75;;;16.90;99.90;;;;;;5105893;27;20055;-35
2023/10/12 14:32:56;;;;;;;5.80;5.00;;;16.90;99.90;;;;;;5042577;28;20031;-36
2023/10/12 14:35:25;;;;;;;7.40;5.10;;;16.90;99.90;;;;;;5107864;27;20066;-35
2023/10/12 14:37:55;;;;;;;7.68;6.40;;;16.90;99.90;;;;;;5101595;27;20442;-35
2023/10/12 14:40:21;;;;;;;7.80;6.38;;;16.90;99.90;;;;;;5081176;27;20112;-34
2023/10/12 14:42:46;;;;;;;7.45;5.78;;;16.90;99.90;;;;;;5146910;27;20018;-35
2023/10/12 14:45:13;;;;;;;6.80;6.15;;;16.90;99.90;;;;;;5093199;27;20101;-35
2023/10/12 14:47:39;;;;;;;7.82;6.07;;;17.00;99.90;;;;;;5133372;27;20474;-35
2023/10/12 14:50:06;;;;;;;6.30;5.65;;;17.00;99.90;;;;;;5091194;27;20032;-37
2023/10/12 14:52:43;;;;;;;7.25;6.05;;;17.00;99.90;;;;;;5136058;27;20445;-40
2023/10/12 14:55:13;;;;;;;7.00;5.55;;;17.00;99.90;;;;;;5111235;27;20126;-35
2023/10/12 14:57:39;;;;;;;6.13;5.53;;;17.10;99.90;;;;;;5116974;27;20019;-35
2023/10/12 15:00:09;;;;;;;5.20;4.72;;;17.10;99.90;;;;;;5122081;27;20027;-35
2023/10/12 15:02:35;;;;;;;5.97;5.25;;;17.10;99.90;;;;;;5107289;27;20023;-35
2023/10/12 15:05:00;;;;;;;5.00;4.57;;;17.10;99.90;;;;;;5131341;27;20091;-35
2023/10/12 15:07:26;;;;;;;6.57;5.85;;;17.20;99.90;;;;;;5093341;27;20042;-35
2023/10/12 15:09:51;;;;;;;6.88;5.97;;;17.10;99.90;;;;;;5138307;27;20040;-36
2023/10/12 15:12:20;;;;;;;6.38;5.75;;;17.10;99.90;;;;;;5086192;27;20045;-36
2023/10/12 15:14:47;;;;;;;7.32;5.55;;;17.10;99.90;;;;;;5139546;27;20685;-35
2023/10/12 15:17:14;;;;;;;6.13;5.53;;;17.10;99.90;;;;;;5086953;27;20054;-35
2023/10/12 15:19:40;;;;;;;5.95;5.00;;;17.10;99.90;;;;;;5144633;27;20441;-35
2023/10/12 15:22:06;;;;;;;6.85;6.15;;;17.20;99.90;;;;;;5108460;27;20041;-35
2023/10/12 15:24:39;;;;;;;5.75;5.00;;;17.20;99.90;;;;;;5041607;28;20471;-36